createdAt,value
2022-09-27T00:01:09.845Z,14.30
2022-09-27T00:03:37.978Z,11.95
2022-09-27T00:06:26.699Z,10.95
2022-09-27T00:08:54.695Z,13.02
2022-09-27T00:11:36.878Z,12.02
2022-09-27T00:14:05.370Z,11.50
2022-09-27T00:16:35.395Z,12.32
2022-09-27T00:19:06.467Z,13.07
2022-09-27T00:21:34.536Z,11.68
2022-09-27T00:24:02.391Z,10.00
2022-09-27T00:26:30.094Z,11.43
2022-09-27T00:28:58.253Z,12.07
2022-09-27T00:31:29.679Z,10.88
2022-09-27T00:34:02.167Z,12.00
2022-09-27T00:36:30.791Z,14.35
2022-09-27T00:39:02.590Z,13.20
2022-09-27T00:41:32.839Z,11.00
2022-09-27T00:44:26.998Z,10.93
2022-09-27T00:47:14.567Z,12.30
2022-09-27T00:49:48.979Z,12.37
2022-09-27T00:52:23.897Z,12.93
2022-09-27T00:54:55.777Z,12.73
2022-09-27T00:57:24.122Z,13.77
2022-09-27T00:59:58.432Z,12.35
2022-09-27T01:02:25.817Z,11.38
2022-09-27T01:04:55.705Z,12.35
2022-09-27T01:07:23.059Z,10.55
2022-09-27T01:09:50.852Z,11.88
2022-09-27T01:12:47.653Z,11.02
2022-09-27T01:15:33.821Z,12.60
2022-09-27T01:18:20.244Z,12.23
2022-09-27T01:21:06.726Z,10.02
2022-09-27T01:23:48.808Z,11.20
2022-09-27T01:26:29.849Z,11.55
2022-09-27T01:29:06.718Z,13.82
2022-09-27T01:31:34.469Z,9.88
2022-09-27T01:34:46.467Z,13.13
2022-09-27T01:37:20.615Z,11.90
2022-09-27T01:39:51.245Z,10.55
2022-09-27T01:42:50.300Z,11.10
2022-09-27T01:45:40.555Z,14.57
2022-09-27T01:48:12.301Z,13.35
2022-09-27T01:50:45.817Z,11.35
2022-09-27T01:53:30.586Z,10.60
2022-09-27T01:58:42.151Z,10.43
2022-09-27T02:01:11.308Z,12.13
2022-09-27T02:03:42.963Z,9.70
2022-09-27T02:06:16.255Z,10.77
2022-09-27T02:08:48.500Z,13.30
2022-09-27T02:11:17.239Z,11.98
2022-09-27T02:13:50.739Z,10.70
2022-09-27T02:19:24.870Z,10.90
2022-09-27T02:21:56.268Z,12.20
2022-09-27T02:24:30.816Z,13.40
2022-09-27T02:27:07.987Z,13.95
2022-09-27T02:29:41.472Z,14.93
2022-09-27T02:32:09.608Z,11.48
2022-09-27T02:34:40.105Z,12.93
2022-09-27T02:37:07.490Z,12.00
2022-09-27T02:39:35.236Z,12.32
2022-09-27T02:42:03.920Z,13.52
2022-09-27T02:44:31.458Z,12.95
2022-09-27T02:47:17.968Z,12.50
2022-09-27T02:49:59.970Z,13.25
2022-09-27T02:52:50.188Z,13.38
2022-09-27T02:55:36.947Z,17.90
2022-09-27T02:58:23.732Z,17.85
2022-09-27T03:01:11.685Z,14.25
2022-09-27T03:03:47.067Z,15.40
2022-09-27T03:08:44.376Z,15.98
2022-09-27T03:11:11.783Z,15.80
2022-09-27T03:14:01.469Z,13.62
2022-09-27T03:16:27.962Z,15.48
2022-09-27T03:18:56.915Z,13.45
2022-09-27T03:21:29.334Z,12.95
2022-09-27T03:23:57.149Z,16.02
2022-09-27T03:26:25.625Z,13.40
2022-09-27T03:28:53.266Z,18.35
2022-09-27T03:31:21.174Z,24.92
2022-09-27T03:33:49.533Z,55.03
2022-09-27T03:36:17.058Z,34.13
2022-09-27T03:38:45.004Z,27.13
2022-09-27T03:41:12.767Z,19.80
2022-09-27T03:43:40.343Z,17.37
2022-09-27T03:46:08.686Z,16.80
2022-09-27T03:48:36.320Z,19.40
2022-09-27T03:51:04.705Z,34.70
2022-09-27T03:53:32.942Z,18.62
2022-09-27T03:56:00.487Z,21.73
2022-09-27T03:58:27.907Z,35.35
2022-09-27T04:00:55.710Z,36.58
2022-09-27T04:03:23.669Z,42.92
2022-09-27T04:05:56.514Z,43.15
2022-09-27T04:08:25.843Z,32.10
2022-09-27T04:10:53.255Z,25.00
2022-09-27T04:13:21.179Z,26.42
2022-09-27T04:15:52.240Z,22.73
2022-09-27T04:18:22.210Z,22.50
2022-09-27T04:20:50.224Z,28.73
2022-09-27T04:23:20.504Z,27.23
2022-09-27T04:25:48.762Z,36.50
2022-09-27T04:28:17.141Z,20.95
2022-09-27T04:30:46.015Z,20.20
2022-09-27T04:33:15.931Z,22.73
2022-09-27T04:36:03.871Z,22.83
2022-09-27T04:38:31.894Z,28.38
2022-09-27T04:41:02.045Z,46.40
2022-09-27T04:43:32.359Z,60.42
2022-09-27T04:46:00.203Z,26.73
2022-09-27T04:48:27.709Z,26.15
2022-09-27T04:51:04.906Z,27.23
2022-09-27T04:53:33.406Z,25.48
2022-09-27T04:56:06.082Z,33.60
2022-09-27T04:58:34.974Z,53.50
2022-09-27T05:01:04.419Z,32.05
2022-09-27T05:03:33.957Z,45.50
2022-09-27T05:06:01.813Z,55.38
2022-09-27T05:08:29.456Z,53.08
2022-09-27T05:10:58.778Z,24.05
2022-09-27T05:13:26.953Z,60.25
2022-09-27T05:15:54.538Z,30.10
2022-09-27T05:18:25.340Z,39.92
2022-09-27T05:20:56.980Z,38.10
2022-09-27T05:23:25.224Z,30.33
2022-09-27T05:25:55.346Z,36.40
2022-09-27T05:28:24.344Z,32.03
2022-09-27T05:30:52.078Z,33.85
2022-09-27T05:33:19.922Z,33.72
2022-09-27T05:35:54.735Z,74.55
2022-09-27T05:38:23.336Z,70.90
2022-09-27T05:40:51.752Z,48.40
2022-09-27T05:43:21.486Z,73.95
2022-09-27T05:45:49.552Z,90.62
2022-09-27T05:48:18.348Z,73.43
2022-09-27T05:50:46.509Z,59.67
2022-09-27T05:53:13.914Z,73.03
2022-09-27T05:55:43.176Z,73.97
2022-09-27T05:58:13.737Z,42.67
2022-09-27T06:00:44.341Z,71.25
2022-09-27T06:03:16.098Z,59.47
2022-09-27T06:05:51.230Z,72.37
2022-09-27T06:08:20.701Z,62.90
2022-09-27T06:10:49.762Z,58.60
2022-09-27T06:13:18.586Z,42.78
2022-09-27T06:15:47.427Z,63.78
2022-09-27T06:18:18.604Z,60.83
2022-09-27T06:20:47.008Z,54.92
2022-09-27T06:23:18.364Z,50.63
2022-09-27T06:25:47.786Z,65.65
2022-09-27T06:28:17.845Z,54.03
2022-09-27T06:30:47.692Z,53.20
2022-09-27T06:33:19.736Z,29.20
2022-09-27T06:35:49.612Z,58.65
2022-09-27T06:38:18.756Z,48.95
2022-09-27T06:40:47.365Z,46.83
2022-09-27T06:43:17.095Z,45.92
2022-09-27T06:45:45.378Z,43.00
2022-09-27T06:50:49.239Z,47.08
2022-09-27T06:53:17.427Z,46.37
2022-09-27T06:55:45.446Z,47.92
2022-09-27T06:58:32.506Z,48.25
2022-09-27T07:01:02.381Z,43.65
2022-09-27T07:03:37.627Z,44.20
2022-09-27T07:06:20.717Z,42.62
2022-09-27T07:08:53.572Z,41.33
2022-09-27T07:11:23.713Z,38.25
2022-09-27T07:13:53.213Z,42.17
2022-09-27T07:16:20.775Z,38.17
2022-09-27T07:18:49.099Z,42.55
2022-09-27T07:21:17.194Z,37.17
2022-09-27T07:23:44.943Z,36.88
2022-09-27T07:26:13.174Z,36.42
2022-09-27T07:28:41.712Z,33.42
2022-09-27T07:31:09.967Z,31.05
2022-09-27T07:33:42.377Z,31.45
2022-09-27T07:36:12.297Z,29.23
2022-09-27T07:38:40.878Z,30.40
2022-09-27T07:41:10.284Z,30.20
2022-09-27T07:43:38.084Z,28.25
2022-09-27T07:46:06.246Z,31.40
2022-09-27T07:48:33.978Z,30.62
2022-09-27T07:51:02.074Z,28.85
2022-09-27T07:53:34.521Z,29.98
2022-09-27T07:56:03.626Z,33.42
2022-09-27T07:58:32.409Z,30.67
2022-09-27T08:01:01.252Z,25.70
2022-09-27T08:03:29.112Z,26.37
2022-09-27T08:05:56.970Z,28.75
2022-09-27T08:08:24.551Z,31.80
2022-09-27T08:10:53.794Z,27.23
2022-09-27T08:13:21.378Z,29.83
2022-09-27T08:15:49.036Z,29.12
2022-09-27T08:18:17.686Z,30.40
2022-09-27T08:20:46.936Z,31.42
2022-09-27T08:23:16.320Z,28.73
2022-09-27T08:25:44.376Z,27.48
2022-09-27T08:28:13.687Z,27.62
2022-09-27T08:30:41.654Z,27.62
2022-09-27T08:33:09.472Z,24.25
2022-09-27T08:35:37.258Z,26.75
2022-09-27T08:38:06.219Z,24.35
2022-09-27T08:40:38.379Z,26.62
2022-09-27T08:43:20.375Z,24.85
2022-09-27T08:46:15.901Z,24.73
2022-09-27T08:48:44.967Z,27.85
2022-09-27T08:51:13.957Z,24.65
2022-09-27T08:53:51.794Z,28.02
2022-09-27T08:56:22.820Z,28.83
2022-09-27T08:58:55.000Z,25.70
2022-09-27T09:01:28.510Z,23.65
2022-09-27T09:04:00.270Z,29.73
2022-09-27T09:06:30.127Z,28.27
2022-09-27T09:09:11.292Z,27.50
2022-09-27T09:12:05.310Z,27.17
2022-09-27T09:15:00.146Z,25.42
2022-09-27T09:17:51.116Z,28.40
2022-09-27T09:20:58.435Z,26.23
2022-09-27T09:23:47.852Z,26.35
2022-09-27T09:26:36.818Z,29.42
2022-09-27T09:29:19.562Z,27.98
2022-09-27T09:31:58.459Z,24.17
2022-09-27T09:34:49.503Z,26.60
2022-09-27T09:37:24.744Z,26.02
2022-09-27T09:40:08.240Z,25.65
2022-09-27T09:42:48.101Z,24.37
2022-09-27T09:45:19.895Z,23.38
2022-09-27T09:47:54.609Z,28.85
2022-09-27T09:50:27.475Z,21.58
2022-09-27T09:52:59.588Z,23.67
2022-09-27T09:55:31.082Z,23.70
2022-09-27T09:58:24.828Z,22.25
2022-09-27T10:00:55.678Z,23.13
2022-09-27T10:03:24.534Z,22.20
2022-09-27T10:05:52.693Z,24.17
2022-09-27T10:08:22.373Z,24.63
2022-09-27T10:10:51.503Z,23.15
2022-09-27T10:13:22.348Z,22.98
2022-09-27T10:15:55.501Z,26.50
2022-09-27T10:18:26.418Z,22.87
2022-09-27T10:21:00.310Z,24.10
2022-09-27T10:23:28.799Z,23.57
2022-09-27T10:26:01.501Z,24.98
2022-09-27T10:28:37.436Z,27.55
2022-09-27T10:31:09.663Z,24.08
2022-09-27T10:33:40.542Z,23.02
2022-09-27T10:36:32.745Z,22.55
2022-09-27T10:39:04.626Z,22.77
2022-09-27T10:41:36.657Z,21.35
2022-09-27T10:44:16.503Z,22.70
2022-09-27T10:46:47.778Z,22.52
2022-09-27T10:49:22.880Z,23.92
2022-09-27T10:51:54.760Z,22.42
2022-09-27T10:54:28.300Z,24.35
2022-09-27T10:57:23.158Z,23.27
2022-09-27T11:00:04.180Z,21.48
2022-09-27T11:02:40.126Z,20.45
2022-09-27T11:05:31.261Z,20.52
2022-09-27T11:08:03.176Z,20.37
2022-09-27T11:10:37.597Z,19.70
2022-09-27T11:13:13.123Z,18.20
2022-09-27T11:16:07.622Z,18.37
2022-09-27T11:18:56.910Z,17.70
2022-09-27T11:22:01.380Z,16.15
2022-09-27T11:25:13.793Z,17.60
2022-09-27T11:28:01.035Z,17.55
2022-09-27T11:30:53.185Z,16.15
2022-09-27T11:33:53.255Z,14.85
2022-09-27T11:36:35.288Z,15.48
2022-09-27T11:39:36.777Z,15.18
2022-09-27T11:42:24.007Z,17.08
2022-09-27T11:45:34.197Z,14.38
2022-09-27T11:48:12.996Z,15.98
2022-09-27T11:50:56.539Z,15.02
2022-09-27T11:53:35.411Z,15.55
2022-09-27T11:56:13.632Z,14.13
2022-09-27T11:59:05.863Z,14.10
2022-09-27T12:01:44.082Z,15.73
2022-09-27T12:04:42.828Z,13.13
2022-09-27T12:07:16.410Z,13.90
2022-09-27T12:09:48.510Z,13.80
2022-09-27T12:12:26.481Z,12.90
2022-09-27T12:15:07.196Z,13.52
2022-09-27T12:17:42.913Z,13.82
2022-09-27T12:20:24.551Z,16.12
2022-09-27T12:23:01.641Z,15.27
2022-09-27T12:25:36.346Z,14.25
2022-09-27T12:28:28.465Z,13.32
2022-09-27T12:31:28.090Z,14.35
2022-09-27T12:34:28.117Z,16.62
2022-09-27T12:37:05.105Z,16.83
2022-09-27T12:40:20.799Z,15.13
2022-09-27T12:43:07.045Z,16.12
2022-09-27T12:45:42.870Z,15.88
2022-09-27T12:48:35.607Z,12.48
2022-09-27T12:51:14.832Z,13.60
2022-09-27T12:53:49.788Z,15.32
2022-09-27T12:56:23.533Z,11.70
2022-09-27T12:59:17.687Z,13.15
2022-09-27T13:02:24.064Z,15.23
2022-09-27T13:05:22.557Z,18.73
2022-09-27T13:08:18.174Z,16.60
2022-09-27T13:10:58.407Z,15.00
2022-09-27T13:13:28.035Z,14.82
2022-09-27T13:16:00.696Z,13.05
2022-09-27T13:18:35.468Z,12.95
2022-09-27T13:21:07.905Z,12.88
2022-09-27T13:23:38.874Z,14.40
2022-09-27T13:26:10.006Z,15.32
2022-09-27T13:28:47.813Z,16.12
2022-09-27T13:31:17.223Z,13.90
2022-09-27T13:33:51.771Z,14.05
2022-09-27T13:36:26.409Z,16.70
2022-09-27T13:39:06.677Z,11.23
2022-09-27T13:41:59.437Z,12.93
2022-09-27T13:44:43.238Z,11.18
2022-09-27T13:47:30.545Z,12.02
2022-09-27T13:50:14.122Z,13.65
2022-09-27T13:52:45.402Z,13.10
2022-09-27T13:55:42.856Z,7.40
2022-09-27T13:58:30.559Z,5.18
2022-09-27T14:01:06.103Z,3.62
2022-09-27T14:03:42.896Z,7.12
2022-09-27T14:06:15.650Z,1.98
2022-09-27T14:08:46.877Z,6.55
2022-09-27T14:11:21.615Z,5.15
2022-09-27T14:13:50.357Z,3.85
2022-09-27T14:16:20.113Z,2.08
2022-09-27T14:19:00.673Z,4.25
2022-09-27T14:21:37.499Z,4.03
2022-09-27T14:24:23.778Z,5.05
2022-09-27T14:27:04.136Z,3.05
2022-09-27T14:29:38.235Z,4.80
2022-09-27T14:32:10.253Z,2.90
2022-09-27T14:34:39.463Z,3.42
2022-09-27T14:37:26.130Z,4.25
2022-09-27T14:39:57.113Z,4.53
2022-09-27T14:42:29.047Z,5.25
2022-09-27T14:45:01.227Z,3.65
2022-09-27T14:47:29.670Z,5.05
2022-09-27T14:50:19.046Z,2.85
2022-09-27T14:52:49.089Z,3.15
2022-09-27T14:55:19.046Z,6.47
2022-09-27T14:57:50.692Z,4.87
2022-09-27T15:00:24.836Z,3.10
2022-09-27T15:02:56.740Z,3.20
2022-09-27T15:05:27.023Z,1.35
2022-09-27T15:07:58.489Z,1.58
2022-09-27T15:10:29.804Z,1.75
2022-09-27T15:13:00.064Z,2.47
2022-09-27T15:15:33.417Z,3.33
2022-09-27T15:18:02.447Z,1.53
2022-09-27T15:20:35.437Z,2.25
2022-09-27T15:23:05.010Z,2.00
2022-09-27T15:25:39.497Z,3.90
2022-09-27T15:28:19.980Z,2.42
2022-09-27T15:30:54.433Z,2.42
2022-09-27T15:35:55.600Z,5.05
2022-09-27T15:38:33.037Z,3.45
2022-09-27T15:41:04.589Z,2.92
2022-09-27T15:43:52.614Z,6.93
2022-09-27T15:46:23.022Z,3.17
2022-09-27T15:49:27.867Z,3.65
2022-09-27T15:51:56.847Z,3.55
2022-09-27T15:54:34.951Z,3.28
2022-09-27T15:57:04.951Z,3.62
2022-09-27T15:59:35.138Z,2.67
2022-09-27T16:02:08.374Z,3.50
2022-09-27T16:04:36.350Z,2.75
2022-09-27T16:07:05.151Z,4.35
2022-09-27T16:09:33.119Z,2.67
2022-09-27T16:12:00.914Z,3.08
2022-09-27T16:14:28.616Z,3.83
2022-09-27T16:16:59.247Z,4.62
2022-09-27T16:19:27.296Z,3.90
2022-09-27T16:21:54.715Z,3.12
2022-09-27T16:24:23.828Z,4.30
2022-09-27T16:26:51.489Z,4.03
2022-09-27T16:29:18.962Z,3.45
2022-09-27T16:31:47.361Z,4.28
2022-09-27T16:34:15.409Z,3.15
2022-09-27T16:36:43.223Z,3.50
2022-09-27T16:39:13.088Z,4.85
2022-09-27T16:41:41.395Z,4.10
2022-09-27T16:44:11.032Z,4.55
2022-09-27T16:46:43.088Z,3.67
2022-09-27T16:49:30.894Z,3.97
2022-09-27T16:52:01.882Z,3.85
2022-09-27T16:54:30.504Z,4.40
2022-09-27T16:56:59.328Z,4.97
2022-09-27T16:59:27.450Z,4.95
2022-09-27T17:01:58.117Z,7.07
2022-09-27T17:04:27.698Z,3.47
2022-09-27T17:06:56.365Z,7.15
2022-09-27T17:09:24.212Z,8.25
2022-09-27T17:11:51.812Z,6.80
2022-09-27T17:14:19.645Z,8.85
2022-09-27T17:16:47.733Z,7.05
2022-09-27T17:19:16.508Z,6.57
2022-09-27T17:21:45.644Z,7.12
2022-09-27T17:24:13.585Z,6.85
2022-09-27T17:26:41.145Z,5.68
2022-09-27T17:29:10.858Z,5.05
2022-09-27T17:31:40.241Z,4.62
2022-09-27T17:34:12.303Z,4.82
2022-09-27T17:36:42.363Z,5.22
2022-09-27T17:39:14.551Z,4.70
2022-09-27T17:41:42.491Z,5.32
2022-09-27T17:44:12.892Z,4.40
2022-09-27T17:46:41.676Z,5.62
2022-09-27T17:49:28.497Z,3.78
2022-09-27T17:51:56.005Z,5.25
2022-09-27T17:54:24.572Z,4.30
2022-09-27T17:56:51.899Z,4.35
2022-09-27T17:59:19.707Z,4.65
2022-09-27T18:01:48.172Z,5.95
2022-09-27T18:04:18.194Z,5.90
2022-09-27T18:06:47.074Z,8.02
2022-09-27T18:09:16.269Z,10.27
2022-09-27T18:11:44.884Z,10.48
2022-09-27T18:14:12.469Z,8.02
2022-09-27T18:16:44.151Z,7.18
2022-09-27T18:19:14.538Z,8.32
2022-09-27T18:21:42.867Z,10.30
2022-09-27T18:24:11.239Z,9.13
2022-09-27T18:26:40.358Z,12.85
2022-09-27T18:29:11.610Z,10.70
2022-09-27T18:31:48.021Z,11.43
2022-09-27T18:34:16.974Z,11.73
2022-09-27T18:36:45.320Z,10.18
2022-09-27T18:39:20.407Z,9.98
2022-09-27T18:41:50.519Z,11.55
2022-09-27T18:44:18.809Z,8.95
2022-09-27T18:46:46.976Z,8.68
2022-09-27T18:49:16.749Z,10.73
2022-09-27T18:51:47.113Z,8.73
2022-09-27T18:54:19.540Z,6.93
2022-09-27T18:56:48.935Z,9.50
2022-09-27T18:59:17.713Z,8.00
2022-09-27T19:01:46.379Z,6.45
2022-09-27T19:04:20.435Z,6.47
2022-09-27T19:06:51.968Z,9.80
2022-09-27T19:09:19.545Z,8.18
2022-09-27T19:11:47.473Z,7.47
2022-09-27T19:14:18.408Z,8.48
2022-09-27T19:16:48.404Z,7.87
2022-09-27T19:19:17.360Z,5.87
2022-09-27T19:21:46.440Z,7.40
2022-09-27T19:24:15.319Z,6.75
2022-09-27T19:26:43.601Z,6.95
2022-09-27T19:29:13.337Z,7.53
2022-09-27T19:31:42.564Z,6.35
2022-09-27T19:34:11.207Z,8.98
2022-09-27T19:36:39.081Z,7.93
2022-09-27T19:39:07.107Z,17.20
2022-09-27T19:41:34.814Z,24.15
2022-09-27T19:44:02.699Z,24.87
2022-09-27T19:46:30.446Z,12.88
2022-09-27T19:48:58.789Z,11.85
2022-09-27T19:51:28.091Z,9.07
2022-09-27T19:53:55.885Z,7.20
2022-09-27T19:56:24.449Z,9.50
2022-09-27T19:58:52.269Z,10.70
2022-09-27T20:01:22.919Z,5.78
2022-09-27T20:03:52.548Z,5.68
2022-09-27T20:06:21.050Z,6.65
2022-09-27T20:08:49.413Z,9.90
2022-09-27T20:11:19.777Z,7.03
2022-09-27T20:13:48.096Z,8.60
2022-09-27T20:16:18.133Z,8.38
2022-09-27T20:18:50.882Z,10.32
2022-09-27T20:21:20.659Z,8.02
2022-09-27T20:23:50.193Z,7.90
2022-09-27T20:26:18.984Z,7.22
2022-09-27T20:28:48.294Z,8.50
2022-09-27T20:31:23.166Z,7.25
2022-09-27T20:33:52.364Z,6.53
2022-09-27T20:36:21.335Z,6.60
2022-09-27T20:38:50.327Z,6.32
2022-09-27T20:41:20.357Z,7.32
2022-09-27T20:43:50.874Z,6.47
2022-09-27T20:46:20.046Z,6.30
2022-09-27T20:48:55.253Z,6.32
2022-09-27T20:51:23.256Z,6.87
2022-09-27T20:53:51.524Z,5.78
2022-09-27T20:56:31.564Z,6.00
2022-09-27T20:59:02.117Z,5.97
2022-09-27T21:01:30.323Z,6.00
2022-09-27T21:04:00.206Z,7.40
2022-09-27T21:06:30.403Z,3.35
2022-09-27T21:08:59.102Z,4.10
2022-09-27T21:11:27.086Z,3.37
2022-09-27T21:13:54.889Z,4.80
2022-09-27T21:16:25.215Z,2.50
2022-09-27T21:18:54.357Z,3.50
2022-09-27T21:21:23.480Z,2.15
2022-09-27T21:23:59.181Z,2.65
2022-09-27T21:26:29.765Z,2.28
2022-09-27T21:28:59.012Z,3.70
2022-09-27T21:31:29.987Z,2.15
2022-09-27T21:33:59.464Z,6.10
2022-09-27T21:36:33.008Z,2.72
2022-09-27T21:39:01.184Z,2.67
2022-09-27T21:41:28.797Z,2.97
2022-09-27T21:43:57.358Z,4.57
2022-09-27T21:46:28.939Z,2.50
2022-09-27T21:48:59.000Z,2.60
2022-09-27T21:51:28.422Z,2.83
2022-09-27T21:53:58.960Z,1.62
2022-09-27T21:56:29.745Z,3.58
2022-09-27T21:58:57.427Z,2.75
2022-09-27T22:01:27.490Z,4.53
2022-09-27T22:03:55.710Z,1.95
2022-09-27T22:06:24.499Z,2.08
2022-09-27T22:08:53.301Z,2.03
2022-09-27T22:11:43.964Z,1.85
2022-09-27T22:14:11.985Z,2.80
2022-09-27T22:16:39.739Z,1.15
2022-09-27T22:19:07.729Z,3.83
2022-09-27T22:21:37.205Z,2.53
2022-09-27T22:24:08.179Z,2.95
2022-09-27T22:26:38.326Z,2.00
2022-09-27T22:29:07.098Z,1.75
2022-09-27T22:31:35.168Z,1.37
2022-09-27T22:34:05.244Z,2.85
2022-09-27T22:36:34.247Z,2.80
2022-09-27T22:39:01.957Z,2.35
2022-09-27T22:41:30.707Z,2.30
2022-09-27T22:43:58.418Z,2.37
2022-09-27T22:46:26.294Z,1.77
2022-09-27T22:48:55.992Z,1.95
2022-09-27T22:51:23.634Z,2.72
2022-09-27T22:53:51.071Z,3.00
2022-09-27T22:56:20.314Z,3.20
2022-09-27T22:58:48.790Z,1.90
2022-09-27T23:01:18.389Z,1.95
2022-09-27T23:03:47.148Z,7.12
2022-09-27T23:06:16.303Z,0.70
2022-09-27T23:08:44.462Z,3.15
2022-09-27T23:11:18.800Z,1.35
2022-09-27T23:13:48.074Z,1.83
2022-09-27T23:16:18.059Z,1.50
2022-09-27T23:18:47.634Z,3.42
2022-09-27T23:21:16.058Z,1.80
2022-09-27T23:23:45.266Z,1.58
2022-09-27T23:26:14.647Z,2.78
2022-09-27T23:28:42.309Z,1.08
2022-09-27T23:31:11.561Z,1.40
2022-09-27T23:33:41.879Z,2.37
2022-09-27T23:36:12.230Z,1.58
2022-09-27T23:38:41.077Z,1.12
2022-09-27T23:41:08.573Z,1.80
2022-09-27T23:43:36.506Z,1.55
2022-09-27T23:46:05.356Z,2.08
2022-09-27T23:48:36.918Z,3.55
2022-09-27T23:51:06.834Z,1.17
2022-09-27T23:53:35.289Z,3.17
2022-09-27T23:56:07.326Z,1.37
2022-09-27T23:58:40.311Z,1.52
